Darstellungsparameter: Aktuell verwendete Einstellungen:
Skalierung der Graphiken ... ?
xyx+y,   Skalierungsfaktor:      Skalierung: Modus: x, Faktor: 1
Darstellungszeitraum ... ?
Vom - - bis: - -   Zeitraum: 14.05.2021 - 14.05.2021
Min/Max/Avg-Anzeige ... ?
Zeige MMA aktuell
Zeige MMA Monat
Zeige MMA alles
Zeige --A aktuell
Zeige --A Monat
Zeige --A alles
Keine MMA-Anzeige
MMA:
Keine MMA-Graphiken
MMA-Basis: 14.05.2021 - 14.05.2021
Quicknavigation für Darstellung... ?
Tage:      1T, 2T, 3T, 5T -1T -2T -3T -5T +1T +2T +3T +5T
Wochen: 1W, 2W, 3W -1W -2W -3W +1W +2W +3W
Monate: 1M, 3M, 6M -1M -3M -6M +1M +3M +6M
Jahre:    1J, 3J, 5J, 10J -1J -3J -5J -10J +1J +3J +5J +10J
Nutze für die Darstellung ... ?
Originaldaten oder Mittelwerte auf ...
Stundenbasis Tagesbasis Wochenbasis
Monatsbasis Jahresbasis      Datenbasis: Original-Daten
Darstellen als:
Statistik (Auto) Statistik J:M      Darstellung:

Der gewünschte Datumsbereich war nicht gültig/verfügbar und wurde korrigiert....
Das angegebene Enddatum (24.07.2026 23:59:59) liegt in der Zukunft.
Das angegebene Startdatum (25.01.2026 00:00:00) liegt in der Zukunft.


Zur Graphik,    zurück zur Übersicht aller Sensoren.
 
Tabellarische Datenbersicht: ?
 
Sensor: Nr:Datum:Temp:Feuchte:Taupunkt:
Aussen-T/F 1 14-05-2021 02:00:00 10.8 C 87 % 8.73 C
2 14-05-2021 02:05:00 10.7 C 86 % 8.46 C
3 14-05-2021 02:10:00 10.6 C 86 % 8.36 C
4 14-05-2021 02:15:00 10.4 C 86 % 8.16 C
5 14-05-2021 02:20:00 10.3 C 86 % 8.06 C
6 14-05-2021 02:25:00 10.2 C 87 % 8.14 C
7 14-05-2021 02:30:00 10.1 C 87 % 8.04 C
8 14-05-2021 02:35:00 9.9 C 87 % 7.84 C
9 14-05-2021 02:40:00 9.8 C 87 % 7.74 C
10 14-05-2021 02:45:00 9.6 C 88 % 7.71 C
11 14-05-2021 02:50:00 9.5 C 88 % 7.61 C
12 14-05-2021 02:55:00 9.4 C 88 % 7.52 C
13 14-05-2021 03:00:00 9.3 C 88 % 7.42 C
14 14-05-2021 03:05:00 9.2 C 89 % 7.48 C
15 14-05-2021 03:10:00 9.1 C 89 % 7.39 C
16 14-05-2021 03:15:00 8.9 C 89 % 7.19 C
17 14-05-2021 03:20:00 8.8 C 89 % 7.09 C
18 14-05-2021 03:25:00 8.7 C 89 % 6.99 C
19 14-05-2021 03:30:00 8.6 C 90 % 7.06 C
20 14-05-2021 03:35:00 8.5 C 90 % 6.96 C
21 14-05-2021 03:40:00 8.4 C 90 % 6.86 C
22 14-05-2021 03:45:00 8.3 C 90 % 6.76 C
23 14-05-2021 03:50:00 8.3 C 90 % 6.76 C
24 14-05-2021 03:55:00 8.2 C 90 % 6.66 C
25 14-05-2021 04:00:00 8.1 C 91 % 6.72 C
Sensor: Nr:Datum:Temp:Feuchte:Taupunkt:
Aussen-T/F 26 14-05-2021 04:05:00 8.1 C 91 % 6.72 C
27 14-05-2021 04:10:00 8.1 C 91 % 6.72 C
28 14-05-2021 04:15:00 8 C 91 % 6.62 C
29 14-05-2021 04:20:00 8.1 C 91 % 6.72 C
30 14-05-2021 04:25:00 8 C 91 % 6.62 C
31 14-05-2021 04:30:00 7.9 C 91 % 6.52 C
32 14-05-2021 04:35:00 7.9 C 91 % 6.52 C
33 14-05-2021 04:40:00 7.8 C 91 % 6.43 C
34 14-05-2021 04:45:00 7.7 C 91 % 6.33 C
35 14-05-2021 04:50:00 7.7 C 91 % 6.33 C
36 14-05-2021 04:55:00 7.7 C 91 % 6.33 C
37 14-05-2021 05:00:00 7.7 C 91 % 6.33 C
38 14-05-2021 05:05:00 7.7 C 91 % 6.33 C
39 14-05-2021 05:10:00 7.7 C 91 % 6.33 C
40 14-05-2021 05:15:00 7.6 C 91 % 6.23 C
41 14-05-2021 05:20:00 7.5 C 91 % 6.13 C
42 14-05-2021 05:25:00 7.4 C 91 % 6.03 C
43 14-05-2021 05:30:00 7.3 C 91 % 5.93 C
44 14-05-2021 05:35:00 7.3 C 91 % 5.93 C
45 14-05-2021 05:40:00 7.3 C 92 % 6.09 C
46 14-05-2021 05:45:00 7.3 C 92 % 6.09 C
47 14-05-2021 05:50:00 7.3 C 92 % 6.09 C
48 14-05-2021 05:55:00 7.3 C 92 % 6.09 C
49 14-05-2021 06:00:00 7.4 C 92 % 6.19 C
50 14-05-2021 06:05:00 7.4 C 92 % 6.19 C
Sensor: Nr:Datum:Temp:Feuchte:Taupunkt:
Aussen-T/F 51 14-05-2021 06:10:00 7.4 C 92 % 6.19 C
52 14-05-2021 06:15:00 7.4 C 92 % 6.19 C
53 14-05-2021 06:20:00 7.4 C 92 % 6.19 C
54 14-05-2021 06:25:00 7.4 C 92 % 6.19 C
55 14-05-2021 06:30:00 7.4 C 92 % 6.19 C
56 14-05-2021 06:35:00 7.4 C 92 % 6.19 C
57 14-05-2021 06:40:00 7.4 C 92 % 6.19 C
58 14-05-2021 06:45:00 7.6 C 92 % 6.39 C
59 14-05-2021 06:50:00 7.6 C 92 % 6.39 C
60 14-05-2021 06:55:00 7.7 C 92 % 6.48 C
61 14-05-2021 07:00:00 7.8 C 92 % 6.58 C
62 14-05-2021 07:05:00 8 C 91 % 6.62 C
63 14-05-2021 07:10:00 8.1 C 91 % 6.72 C
64 14-05-2021 07:15:00 8.2 C 91 % 6.82 C
65 14-05-2021 07:20:00 8.3 C 90 % 6.76 C
66 14-05-2021 07:25:00 8.4 C 90 % 6.86 C
67 14-05-2021 07:30:00 8.5 C 91 % 7.12 C
68 14-05-2021 07:35:00 8.6 C 90 % 7.06 C
69 14-05-2021 07:40:00 8.8 C 90 % 7.25 C
70 14-05-2021 07:45:00 9 C 90 % 7.45 C
71 14-05-2021 07:50:00 9.2 C 89 % 7.48 C
72 14-05-2021 07:55:00 9.3 C 88 % 7.42 C
73 14-05-2021 08:00:00 9.5 C 88 % 7.61 C
74 14-05-2021 08:05:00 9.6 C 87 % 7.55 C
75 14-05-2021 08:10:00 9.7 C 87 % 7.64 C
Sensor: Nr:Datum:Temp:Feuchte:Taupunkt:
Aussen-T/F 76 14-05-2021 08:15:00 9.8 C 87 % 7.74 C
77 14-05-2021 08:20:00 9.9 C 87 % 7.84 C
78 14-05-2021 08:25:00 10.1 C 87 % 8.04 C
79 14-05-2021 08:30:00 10.2 C 87 % 8.14 C
80 14-05-2021 08:35:00 10.4 C 86 % 8.16 C
81 14-05-2021 08:40:00 10.7 C 86 % 8.46 C
82 14-05-2021 08:45:00 10.8 C 85 % 8.38 C
83 14-05-2021 08:50:00 11.1 C 85 % 8.68 C
84 14-05-2021 08:55:00 11.3 C 84 % 8.7 C
85 14-05-2021 09:00:00 11.4 C 83 % 8.62 C
86 14-05-2021 09:05:00 11.7 C 83 % 8.91 C
87 14-05-2021 09:10:00 11.8 C 82 % 8.83 C
88 14-05-2021 09:15:00 11.9 C 82 % 8.93 C
89 14-05-2021 09:20:00 12.1 C 81 % 8.94 C
90 14-05-2021 09:25:00 12.2 C 81 % 9.04 C
91 14-05-2021 09:30:00 12.2 C 80 % 8.86 C
92 14-05-2021 09:35:00 12.3 C 81 % 9.14 C
93 14-05-2021 09:40:00 12.4 C 80 % 9.05 C
94 14-05-2021 09:45:00 12.6 C 80 % 9.25 C
95 14-05-2021 09:50:00 12.7 C 79 % 9.16 C
96 14-05-2021 09:55:00 12.9 C 79 % 9.35 C
97 14-05-2021 10:00:00 13.1 C 79 % 9.54 C
98 14-05-2021 10:05:00 13.1 C 78 % 9.36 C
99 14-05-2021 10:10:00 13.2 C 78 % 9.45 C
100 14-05-2021 10:15:00 13.4 C 77 % 9.45 C
Sensor: Nr:Datum:Temp:Feuchte:Taupunkt:
Aussen-T/F 101 14-05-2021 10:20:00 13.6 C 76 % 9.45 C
102 14-05-2021 10:25:00 13.8 C 77 % 9.84 C
103 14-05-2021 10:30:00 13.9 C 76 % 9.74 C
104 14-05-2021 10:35:00 13.9 C 75 % 9.55 C
105 14-05-2021 10:40:00 13.9 C 75 % 9.55 C
106 14-05-2021 10:45:00 14 C 75 % 9.64 C
107 14-05-2021 10:50:00 14.3 C 76 % 10.13 C
108 14-05-2021 10:55:00 14.6 C 74 % 10.02 C
109 14-05-2021 11:00:00 14.8 C 72 % 9.81 C
110 14-05-2021 11:05:00 14.8 C 70 % 9.39 C
111 14-05-2021 11:10:00 14.8 C 70 % 9.39 C
112 14-05-2021 11:15:00 14.8 C 71 % 9.6 C
113 14-05-2021 11:20:00 14.8 C 71 % 9.6 C
114 14-05-2021 11:25:00 14.8 C 69 % 9.17 C
115 14-05-2021 11:30:00 14.9 C 70 % 9.48 C
116 14-05-2021 11:35:00 15 C 68 % 9.15 C
117 14-05-2021 11:40:00 15 C 70 % 9.58 C
118 14-05-2021 11:45:00 15.1 C 68 % 9.24 C
119 14-05-2021 11:50:00 15.2 C 68 % 9.34 C
120 14-05-2021 11:55:00 15.2 C 68 % 9.34 C
121 14-05-2021 12:00:00 15.2 C 66 % 8.9 C
122 14-05-2021 12:05:00 15.2 C 67 % 9.12 C
123 14-05-2021 12:10:00 15.3 C 65 % 8.77 C
124 14-05-2021 12:15:00 15.5 C 64 % 8.73 C
125 14-05-2021 12:20:00 15.6 C 65 % 9.05 C
Sensor: Nr:Datum:Temp:Feuchte:Taupunkt:
Aussen-T/F 126 14-05-2021 12:25:00 15.6 C 64 % 8.82 C
127 14-05-2021 12:30:00 15.7 C 64 % 8.92 C
128 14-05-2021 12:35:00 15.8 C 62 % 8.54 C
129 14-05-2021 12:40:00 15.8 C 63 % 8.78 C
130 14-05-2021 12:45:00 15.9 C 63 % 8.87 C
131 14-05-2021 12:50:00 16.1 C 63 % 9.06 C
132 14-05-2021 12:55:00 16.2 C 62 % 8.92 C
133 14-05-2021 13:00:00 16.2 C 61 % 8.68 C
134 14-05-2021 13:05:00 16.3 C 61 % 8.77 C
135 14-05-2021 13:10:00 16.4 C 60 % 8.62 C
136 14-05-2021 13:15:00 16.7 C 60 % 8.9 C
137 14-05-2021 13:20:00 16.7 C 57 % 8.15 C
138 14-05-2021 13:25:00 16.8 C 60 % 9 C
139 14-05-2021 13:30:00 16.9 C 58 % 8.59 C
140 14-05-2021 13:35:00 17.1 C 56 % 8.26 C
141 14-05-2021 13:40:00 17.4 C 52 % 7.45 C
142 14-05-2021 13:45:00 17.6 C 52 % 7.64 C
143 14-05-2021 13:50:00 17.7 C 55 % 8.55 C
144 14-05-2021 13:55:00 17.6 C 54 % 8.19 C
145 14-05-2021 14:00:00 17.7 C 56 % 8.82 C
146 14-05-2021 14:05:00 17.6 C 56 % 8.73 C
147 14-05-2021 14:10:00 17.6 C 56 % 8.73 C
148 14-05-2021 14:15:00 17.6 C 52 % 7.64 C
149 14-05-2021 14:20:00 17.7 C 56 % 8.82 C
150 14-05-2021 14:25:00 17.8 C 53 % 8.1 C
Sensor: Nr:Datum:Temp:Feuchte:Taupunkt:
Aussen-T/F 151 14-05-2021 14:30:00 17.8 C 54 % 8.38 C
152 14-05-2021 14:35:00 17.7 C 53 % 8.01 C
153 14-05-2021 14:40:00 17.2 C 57 % 8.62 C
154 14-05-2021 14:45:00 16.7 C 55 % 7.62 C
155 14-05-2021 14:50:00 16.8 C 57 % 8.24 C
156 14-05-2021 14:55:00 17.1 C 57 % 8.52 C
157 14-05-2021 15:00:00 17.4 C 57 % 8.8 C

Legende:
   Min
   Max


Maximal/Minimal-Werte vom 14.05.2021 - 14.05.2021

Sensor Min Max Avg
Temp
(Aussen-T/F)
7.3 °C
14-05-2021  05:30:00
17.8 °C
14-05-2021  14:25:00
11.68 °C
Feuchte
(Aussen-T/F)
52 %
14-05-2021  13:40:00
92 %
14-05-2021  05:40:00
79.12 %
Taupunkt
(Aussen-T/F)
5.93 C
14-05-2021  05:30:00
10.13 C
14-05-2021  10:50:00
7.86 C

Die Daten stammen von einer Davis Vantage Pro 2 Wetter-Station und werden unter Linux mit der Software wview2wettercgi und aufbereitet. Alle Angaben erfolgen ohne Gewähr für ihre Vollständigkeit oder Richtigkeit.
Kontakt: Rainer Krienke krienke@uni-koblenz.de . Meine Webseiten an der Uni Koblenz oder privat.
Version: $Revision: 0.78 $